createdAt,value
2023-01-17T00:01:29.327Z,8.97
2023-01-17T00:04:18.480Z,16.80
2023-01-17T00:07:03.984Z,6.40
2023-01-17T00:09:49.283Z,3.50
2023-01-17T00:12:15.894Z,2.90
2023-01-17T00:14:42.562Z,3.67
2023-01-17T00:17:09.119Z,5.53
2023-01-17T00:19:54.303Z,2.03
2023-01-17T00:22:44.119Z,1.70
2023-01-17T00:25:34.022Z,2.50
2023-01-17T00:28:00.702Z,1.10
2023-01-17T00:30:27.386Z,5.00
2023-01-17T00:32:53.890Z,6.13
2023-01-17T00:35:22.730Z,2.73
2023-01-17T00:37:49.524Z,13.43
2023-01-17T00:40:16.124Z,2.43
2023-01-17T00:42:42.709Z,7.50
2023-01-17T00:45:27.849Z,6.20
2023-01-17T00:48:13.239Z,3.13
2023-01-17T00:50:58.048Z,2.40
2023-01-17T00:53:43.385Z,8.73
2023-01-17T00:56:28.520Z,1.87
2023-01-17T00:59:13.885Z,3.67
2023-01-17T01:01:59.420Z,11.00
2023-01-17T01:04:44.851Z,2.10
2023-01-17T01:07:30.172Z,4.37
2023-01-17T01:10:15.483Z,4.77
2023-01-17T01:13:00.909Z,2.13
2023-01-17T01:15:46.099Z,2.30
2023-01-17T01:18:31.562Z,2.10
2023-01-17T01:21:21.033Z,1.40
2023-01-17T01:24:06.330Z,3.70
2023-01-17T01:26:51.599Z,3.73
2023-01-17T01:29:36.925Z,2.13
2023-01-17T01:32:22.241Z,2.20
2023-01-17T01:34:48.788Z,5.50
2023-01-17T01:37:15.292Z,12.17
2023-01-17T01:39:41.844Z,5.53
2023-01-17T01:42:15.532Z,3.73
2023-01-17T01:44:43.637Z,4.93
2023-01-17T01:47:30.448Z,3.27
2023-01-17T01:49:59.605Z,4.40
2023-01-17T01:52:27.575Z,6.13
2023-01-17T01:54:57.525Z,1.93
2023-01-17T01:57:25.820Z,5.17
2023-01-17T01:59:55.341Z,2.70
2023-01-17T02:02:22.071Z,14.47
2023-01-17T02:04:49.629Z,8.23
2023-01-17T02:07:22.049Z,3.30
2023-01-17T02:09:48.826Z,4.60
2023-01-17T02:12:16.176Z,6.67
2023-01-17T02:14:43.435Z,14.50
2023-01-17T02:17:28.719Z,11.30
2023-01-17T02:20:13.803Z,4.20
2023-01-17T02:22:43.366Z,16.03
2023-01-17T02:25:09.871Z,18.27
2023-01-17T02:27:44.461Z,6.30
2023-01-17T02:30:29.784Z,7.73
2023-01-17T02:33:01.118Z,8.40
2023-01-17T02:35:30.747Z,8.27
2023-01-17T02:38:06.421Z,7.37
2023-01-17T02:40:36.944Z,11.07
2023-01-17T02:43:06.428Z,19.60
2023-01-17T02:45:32.929Z,12.70
2023-01-17T02:47:59.425Z,14.93
2023-01-17T02:50:30.075Z,19.83
2023-01-17T02:53:02.759Z,13.93
2023-01-17T02:55:54.033Z,15.13
2023-01-17T02:58:20.740Z,11.63
2023-01-17T03:00:56.541Z,24.87
2023-01-17T03:03:30.479Z,19.60
2023-01-17T03:06:02.334Z,15.73
2023-01-17T03:08:29.275Z,13.87
2023-01-17T03:10:55.926Z,12.10
2023-01-17T03:13:22.679Z,17.93
2023-01-17T03:15:49.306Z,6.70
2023-01-17T03:18:16.328Z,11.00
2023-01-17T03:20:43.038Z,11.20
2023-01-17T03:23:09.598Z,13.80
2023-01-17T03:25:36.303Z,10.30
2023-01-17T03:28:03.615Z,17.53
2023-01-17T03:30:30.190Z,10.80
2023-01-17T03:32:56.962Z,7.17
2023-01-17T03:35:23.482Z,9.03
2023-01-17T03:37:49.996Z,12.93
2023-01-17T03:40:16.832Z,8.23
2023-01-17T03:42:43.710Z,9.47
2023-01-17T03:45:10.730Z,14.83
2023-01-17T03:47:37.221Z,10.83
2023-01-17T03:50:04.213Z,10.03
2023-01-17T03:52:30.771Z,9.57
2023-01-17T03:54:57.538Z,9.50
2023-01-17T03:57:24.012Z,18.40
2023-01-17T03:59:50.724Z,10.37
2023-01-17T04:02:17.635Z,13.37
2023-01-17T04:04:44.189Z,12.35
2023-01-17T04:07:10.750Z,19.70
2023-01-17T04:09:37.317Z,14.68
2023-01-17T04:12:04.030Z,11.90
2023-01-17T04:14:30.562Z,8.13
2023-01-17T04:16:57.419Z,20.38
2023-01-17T04:19:24.256Z,20.57
2023-01-17T04:21:50.936Z,11.23
2023-01-17T04:24:18.101Z,23.03
2023-01-17T04:26:44.925Z,17.90
2023-01-17T04:29:11.753Z,11.88
2023-01-17T04:31:38.559Z,31.38
2023-01-17T04:34:05.125Z,13.87
2023-01-17T04:36:32.314Z,16.15
2023-01-17T04:38:58.855Z,16.80
2023-01-17T04:41:25.330Z,13.75
2023-01-17T04:43:52.021Z,16.83
2023-01-17T04:46:18.702Z,18.10
2023-01-17T04:48:45.188Z,15.05
2023-01-17T04:51:11.727Z,16.20
2023-01-17T04:53:38.278Z,15.73
2023-01-17T04:56:04.972Z,18.17
2023-01-17T04:58:31.672Z,14.50
2023-01-17T05:01:05.383Z,21.30
2023-01-17T05:03:32.515Z,13.50
2023-01-17T05:05:59.555Z,16.07
2023-01-17T05:08:26.367Z,19.55
2023-01-17T05:10:53.046Z,14.65
2023-01-17T05:13:19.658Z,26.55
2023-01-17T05:15:46.777Z,20.27
2023-01-17T05:18:14.154Z,19.90
2023-01-17T05:20:40.642Z,17.30
2023-01-17T05:23:07.520Z,18.25
2023-01-17T05:25:34.286Z,24.30
2023-01-17T05:28:00.968Z,14.95
2023-01-17T05:30:28.502Z,22.50
2023-01-17T05:32:56.063Z,19.88
2023-01-17T05:35:24.765Z,23.77
2023-01-17T05:37:51.431Z,15.30
2023-01-17T05:40:19.009Z,26.80
2023-01-17T05:42:46.592Z,21.38
2023-01-17T05:45:16.738Z,15.40
2023-01-17T05:47:44.144Z,23.27
2023-01-17T05:50:11.680Z,18.57
2023-01-17T05:52:38.263Z,16.63
2023-01-17T05:55:06.611Z,14.23
2023-01-17T05:57:33.609Z,22.63
2023-01-17T06:00:00.164Z,18.15
2023-01-17T06:02:26.724Z,16.07
2023-01-17T06:04:53.285Z,24.53
2023-01-17T06:07:19.809Z,16.40
2023-01-17T06:09:46.991Z,22.77
2023-01-17T06:12:13.556Z,18.93
2023-01-17T06:14:40.066Z,18.20
2023-01-17T06:17:06.632Z,21.03
2023-01-17T06:19:33.272Z,24.90
2023-01-17T06:21:59.775Z,34.53
2023-01-17T06:24:27.385Z,17.70
2023-01-17T06:26:53.866Z,31.33
2023-01-17T06:29:20.668Z,21.95
2023-01-17T06:31:47.215Z,18.83
2023-01-17T06:34:13.692Z,24.17
2023-01-17T06:36:40.192Z,19.50
2023-01-17T06:39:06.700Z,27.00
2023-01-17T06:41:33.571Z,22.70
2023-01-17T06:44:00.200Z,18.65
2023-01-17T06:46:26.769Z,33.13
2023-01-17T06:48:53.436Z,24.33
2023-01-17T06:51:20.036Z,38.47
2023-01-17T06:53:47.801Z,29.00
2023-01-17T06:56:14.305Z,24.73
2023-01-17T06:58:40.745Z,32.03
2023-01-17T07:01:08.250Z,23.30
2023-01-17T07:03:35.050Z,18.98
2023-01-17T07:06:02.531Z,18.05
2023-01-17T07:08:29.023Z,30.58
2023-01-17T07:11:00.285Z,22.90
2023-01-17T07:13:27.195Z,19.58
2023-01-17T07:15:53.793Z,15.68
2023-01-17T07:18:23.235Z,21.15
2023-01-17T07:20:50.472Z,24.10
2023-01-17T07:23:17.460Z,25.60
2023-01-17T07:25:44.283Z,24.73
2023-01-17T07:28:10.896Z,25.73
2023-01-17T07:30:37.333Z,21.75
2023-01-17T07:33:04.160Z,19.05
2023-01-17T07:35:30.682Z,26.88
2023-01-17T07:37:57.185Z,27.95
2023-01-17T07:40:24.343Z,38.35
2023-01-17T07:42:50.939Z,37.22
2023-01-17T07:45:17.646Z,31.20
2023-01-17T07:47:44.495Z,29.77
2023-01-17T07:50:11.472Z,36.85
2023-01-17T07:52:37.938Z,25.30
2023-01-17T07:55:05.086Z,52.42
2023-01-17T07:57:32.858Z,37.63
2023-01-17T07:59:59.374Z,31.20
2023-01-17T08:02:25.870Z,23.63
2023-01-17T08:04:52.514Z,20.25
2023-01-17T08:07:19.057Z,24.15
2023-01-17T08:09:49.599Z,18.10
2023-01-17T08:12:16.891Z,38.20
2023-01-17T08:14:43.462Z,30.75
2023-01-17T08:17:11.544Z,28.17
2023-01-17T08:19:38.206Z,21.88
2023-01-17T08:22:04.769Z,22.85
2023-01-17T08:24:31.358Z,22.30
2023-01-17T08:26:58.216Z,20.55
2023-01-17T08:29:24.948Z,20.00
2023-01-17T08:31:51.656Z,14.13
2023-01-17T08:34:18.442Z,20.45
2023-01-17T08:36:45.429Z,15.68
2023-01-17T08:39:13.091Z,18.30
2023-01-17T08:41:39.660Z,29.83
2023-01-17T08:44:06.516Z,15.55
2023-01-17T08:46:33.275Z,19.20
2023-01-17T08:49:00.102Z,13.80
2023-01-17T08:51:27.453Z,11.70
2023-01-17T08:53:54.861Z,13.90
2023-01-17T08:56:21.903Z,10.27
2023-01-17T08:58:48.721Z,14.57
2023-01-17T09:01:15.971Z,17.13
2023-01-17T09:03:42.739Z,21.00
2023-01-17T09:06:10.968Z,21.20
2023-01-17T09:08:38.159Z,12.43
2023-01-17T09:11:06.706Z,15.60
2023-01-17T09:13:33.295Z,19.23
2023-01-17T09:16:00.001Z,25.53
2023-01-17T09:18:27.341Z,19.83
2023-01-17T09:20:55.085Z,16.03
2023-01-17T09:23:22.526Z,19.23
2023-01-17T09:25:53.478Z,17.53
2023-01-17T09:28:21.089Z,15.43
2023-01-17T09:30:47.685Z,13.20
2023-01-17T09:33:14.377Z,24.70
2023-01-17T09:35:41.321Z,17.00
2023-01-17T09:38:07.972Z,20.60
2023-01-17T09:40:36.517Z,13.87
2023-01-17T09:43:05.342Z,21.00
2023-01-17T09:45:33.574Z,13.27
2023-01-17T09:48:00.790Z,19.33
2023-01-17T09:50:31.975Z,13.87
2023-01-17T09:53:01.340Z,12.03
2023-01-17T09:55:49.169Z,13.33
2023-01-17T09:58:18.873Z,9.43
2023-01-17T10:00:45.766Z,22.13
2023-01-17T10:03:31.313Z,10.73
2023-01-17T10:06:04.299Z,20.57
2023-01-17T10:08:45.952Z,16.10
2023-01-17T10:11:31.704Z,15.10
2023-01-17T10:14:10.930Z,15.30
2023-01-17T10:16:56.601Z,10.93
2023-01-17T10:19:46.646Z,13.80
2023-01-17T10:22:32.093Z,11.33
2023-01-17T10:25:01.729Z,25.33
2023-01-17T10:27:31.152Z,16.17
2023-01-17T10:29:58.706Z,14.80
2023-01-17T10:32:26.699Z,14.27
2023-01-17T10:34:53.423Z,11.90
2023-01-17T10:37:26.413Z,11.87
2023-01-17T10:39:55.950Z,17.20
2023-01-17T10:42:25.296Z,13.00
2023-01-17T10:44:54.831Z,16.33
2023-01-17T10:47:22.746Z,17.00
2023-01-17T10:49:52.640Z,15.50
2023-01-17T10:52:27.617Z,11.90
2023-01-17T10:54:58.680Z,11.67
2023-01-17T10:57:27.256Z,17.10
2023-01-17T10:59:57.861Z,13.57
2023-01-17T11:02:26.159Z,15.90
2023-01-17T11:04:54.666Z,18.60
2023-01-17T11:07:23.361Z,12.07
2023-01-17T11:09:51.290Z,12.20
2023-01-17T11:12:29.043Z,18.53
2023-01-17T11:14:58.851Z,7.73
2023-01-17T11:17:27.847Z,13.83
2023-01-17T11:19:54.649Z,7.10
2023-01-17T11:22:21.601Z,11.33
2023-01-17T11:24:52.651Z,18.77
2023-01-17T11:27:23.896Z,9.43
2023-01-17T11:30:01.881Z,18.10
2023-01-17T11:32:31.112Z,11.60
2023-01-17T11:35:13.181Z,8.13
2023-01-17T11:37:48.597Z,13.40
2023-01-17T11:40:15.310Z,13.90
2023-01-17T11:42:42.089Z,8.57
2023-01-17T11:45:23.237Z,12.20
2023-01-17T11:47:49.781Z,12.33
2023-01-17T11:50:26.637Z,13.17
2023-01-17T11:52:54.785Z,10.80
2023-01-17T11:55:23.040Z,10.50
2023-01-17T11:57:50.666Z,11.43
2023-01-17T12:00:49.904Z,15.23
2023-01-17T12:03:19.687Z,22.90
2023-01-17T12:05:53.704Z,9.87
2023-01-17T12:08:33.636Z,12.83
2023-01-17T12:11:23.254Z,11.87
2023-01-17T12:14:22.326Z,8.57
2023-01-17T12:16:56.149Z,20.43
2023-01-17T12:19:38.895Z,6.60
2023-01-17T12:22:05.561Z,14.57
2023-01-17T12:24:40.396Z,20.80
2023-01-17T12:27:13.970Z,9.30
2023-01-17T12:29:47.075Z,7.90
2023-01-17T12:32:23.506Z,4.57
2023-01-17T12:34:54.174Z,11.40
2023-01-17T12:37:23.969Z,6.80
2023-01-17T12:40:14.266Z,4.13
2023-01-17T12:42:43.924Z,8.20
2023-01-17T12:45:15.602Z,11.23
2023-01-17T12:47:45.203Z,6.40
2023-01-17T12:50:20.319Z,8.03
2023-01-17T12:52:46.930Z,12.60
2023-01-17T12:55:20.166Z,12.20
2023-01-17T12:57:51.850Z,12.03
2023-01-17T13:00:23.874Z,9.53
2023-01-17T13:02:53.589Z,10.33
2023-01-17T13:05:23.980Z,8.07
2023-01-17T13:08:02.366Z,12.20
2023-01-17T13:10:32.264Z,7.27
2023-01-17T13:13:02.689Z,14.77
2023-01-17T13:15:32.427Z,12.33
2023-01-17T13:18:31.121Z,13.30
2023-01-17T13:21:06.259Z,6.30
2023-01-17T13:23:44.913Z,10.20
2023-01-17T13:26:27.998Z,12.60
2023-01-17T13:29:00.628Z,11.03
2023-01-17T13:31:30.600Z,7.33
2023-01-17T13:34:11.528Z,10.07
2023-01-17T13:36:47.534Z,13.90
2023-01-17T13:39:27.057Z,12.10
2023-01-17T13:41:59.539Z,11.83
2023-01-17T13:44:27.751Z,11.20
2023-01-17T13:47:27.688Z,10.00
2023-01-17T13:49:56.543Z,13.33
2023-01-17T13:52:26.478Z,8.87
2023-01-17T13:54:54.787Z,13.17
2023-01-17T13:57:32.928Z,14.50
2023-01-17T14:00:00.231Z,11.90
2023-01-17T14:02:33.285Z,8.50
2023-01-17T14:05:09.403Z,5.27
2023-01-17T14:07:39.924Z,8.00
2023-01-17T14:10:25.623Z,6.33
2023-01-17T14:12:52.207Z,6.03
2023-01-17T14:15:20.994Z,4.97
2023-01-17T14:17:50.138Z,9.53
2023-01-17T14:20:17.327Z,7.43
2023-01-17T14:22:53.605Z,10.90
2023-01-17T14:25:25.076Z,19.27
2023-01-17T14:27:54.502Z,11.63
2023-01-17T14:30:33.366Z,6.93
2023-01-17T14:33:06.054Z,11.03
2023-01-17T14:35:49.858Z,7.10
2023-01-17T14:38:24.183Z,12.37
2023-01-17T14:41:29.510Z,15.90
2023-01-17T14:43:56.481Z,8.30
2023-01-17T14:46:23.282Z,9.10
2023-01-17T14:48:50.847Z,12.60
2023-01-17T14:51:21.642Z,19.63
2023-01-17T14:53:52.228Z,8.63
2023-01-17T14:56:18.842Z,7.73
2023-01-17T14:58:48.563Z,20.53
2023-01-17T15:01:18.890Z,15.00
2023-01-17T15:03:55.357Z,14.53
2023-01-17T15:06:29.128Z,12.13
2023-01-17T15:08:56.021Z,7.87
2023-01-17T15:11:25.460Z,10.53
2023-01-17T15:13:54.942Z,12.40
2023-01-17T15:16:21.625Z,7.90
2023-01-17T15:18:48.762Z,10.93
2023-01-17T15:21:20.379Z,15.00
2023-01-17T15:23:54.357Z,11.10
2023-01-17T15:26:25.265Z,17.67
2023-01-17T15:29:02.662Z,11.57
2023-01-17T15:31:55.678Z,24.00
2023-01-17T15:34:33.553Z,5.60
2023-01-17T15:37:01.526Z,10.20
2023-01-17T15:39:30.320Z,18.10
2023-01-17T15:42:05.493Z,9.90
2023-01-17T15:44:47.662Z,13.47
2023-01-17T15:47:29.433Z,14.15
2023-01-17T15:49:56.423Z,15.32
2023-01-17T15:52:23.190Z,11.73
2023-01-17T15:54:56.001Z,9.57
2023-01-17T15:57:22.868Z,12.45
2023-01-17T15:59:53.020Z,11.07
2023-01-17T16:02:32.064Z,8.10
2023-01-17T16:04:59.424Z,9.27
2023-01-17T16:07:34.100Z,18.73
2023-01-17T16:10:18.845Z,11.05
2023-01-17T16:12:46.639Z,16.80
2023-01-17T16:15:14.638Z,13.70
2023-01-17T16:17:42.955Z,28.83
2023-01-17T16:20:15.825Z,21.88
2023-01-17T16:22:44.022Z,28.88
2023-01-17T16:25:15.274Z,25.30
2023-01-17T16:27:43.197Z,18.75
2023-01-17T16:30:11.001Z,22.92
2023-01-17T16:32:38.077Z,24.73
2023-01-17T16:35:06.348Z,27.10
2023-01-17T16:37:32.968Z,24.05
2023-01-17T16:39:59.722Z,30.55
2023-01-17T16:42:28.671Z,28.85
2023-01-17T16:44:55.381Z,24.20
2023-01-17T16:47:22.490Z,36.65
2023-01-17T16:49:49.111Z,21.77
2023-01-17T16:52:15.872Z,18.30
2023-01-17T16:54:42.514Z,16.67
2023-01-17T16:57:09.085Z,27.60
2023-01-17T16:59:49.791Z,33.78
2023-01-17T17:02:18.629Z,29.48
2023-01-17T17:04:45.669Z,22.25
2023-01-17T17:07:12.371Z,20.85
2023-01-17T17:09:39.197Z,18.17
2023-01-17T17:12:06.023Z,31.20
2023-01-17T17:14:32.924Z,25.95
2023-01-17T17:17:02.460Z,29.02
2023-01-17T17:19:29.223Z,20.05
2023-01-17T17:21:59.508Z,32.42
2023-01-17T17:24:26.265Z,14.43
2023-01-17T17:26:52.863Z,22.45
2023-01-17T17:29:20.047Z,36.83
2023-01-17T17:31:47.111Z,23.98
2023-01-17T17:34:14.379Z,20.52
2023-01-17T17:36:41.189Z,18.08
2023-01-17T17:39:10.667Z,24.30
2023-01-17T17:41:40.742Z,18.48
2023-01-17T17:44:07.428Z,25.27
2023-01-17T17:46:34.975Z,34.47
2023-01-17T17:49:01.799Z,32.78
2023-01-17T17:51:30.056Z,27.95
2023-01-17T17:54:00.925Z,17.25
2023-01-17T17:56:28.609Z,14.40
2023-01-17T17:58:55.410Z,14.10
2023-01-17T18:01:24.921Z,19.58
2023-01-17T18:03:52.472Z,19.80
2023-01-17T18:06:19.595Z,22.13
2023-01-17T18:08:46.698Z,21.88
2023-01-17T18:11:19.669Z,20.10
2023-01-17T18:13:53.005Z,11.55
2023-01-17T18:16:21.089Z,15.25
2023-01-17T18:18:49.668Z,26.52
2023-01-17T18:21:23.753Z,24.75
2023-01-17T18:23:53.287Z,25.20
2023-01-17T18:26:19.939Z,33.58
2023-01-17T18:28:46.592Z,19.67
2023-01-17T18:31:13.469Z,21.15
2023-01-17T18:33:40.728Z,20.60
2023-01-17T18:36:08.616Z,17.90
2023-01-17T18:38:39.600Z,31.65
2023-01-17T18:41:13.672Z,29.58
2023-01-17T18:43:40.632Z,24.30
2023-01-17T18:46:07.955Z,33.83
2023-01-17T18:48:36.122Z,26.75
2023-01-17T18:51:05.135Z,33.97
2023-01-17T18:53:32.799Z,45.67
2023-01-17T18:56:00.132Z,27.70
2023-01-17T18:58:27.795Z,47.65
2023-01-17T19:00:55.010Z,34.72
2023-01-17T19:03:26.283Z,37.22
2023-01-17T19:05:52.969Z,36.20
2023-01-17T19:08:19.505Z,37.30
2023-01-17T19:10:46.654Z,40.28
2023-01-17T19:13:13.418Z,36.03
2023-01-17T19:15:41.720Z,43.33
2023-01-17T19:18:08.342Z,40.42
2023-01-17T19:20:35.267Z,40.10
2023-01-17T19:23:01.932Z,37.80
2023-01-17T19:25:28.695Z,44.90
2023-01-17T19:27:55.672Z,52.83
2023-01-17T19:30:22.466Z,38.25
2023-01-17T19:32:49.851Z,54.03
2023-01-17T19:35:17.577Z,52.60
2023-01-17T19:37:48.071Z,37.47
2023-01-17T19:40:15.568Z,48.13
2023-01-17T19:42:42.289Z,52.95
2023-01-17T19:45:10.002Z,36.45
2023-01-17T19:47:37.076Z,45.15
2023-01-17T19:50:04.717Z,39.83
2023-01-17T19:52:31.654Z,39.55
2023-01-17T19:54:58.438Z,42.33
2023-01-17T19:57:26.640Z,37.50
2023-01-17T19:59:53.876Z,52.63
2023-01-17T20:02:20.793Z,37.28
2023-01-17T20:04:47.521Z,51.92
2023-01-17T20:07:14.300Z,56.45
2023-01-17T20:09:40.849Z,42.30
2023-01-17T20:12:07.541Z,63.08
2023-01-17T20:14:34.283Z,86.88
2023-01-17T20:17:00.896Z,63.35
2023-01-17T20:19:27.452Z,50.28
2023-01-17T20:21:54.124Z,46.17
2023-01-17T20:24:20.731Z,57.80
2023-01-17T20:26:47.488Z,53.03
2023-01-17T20:29:14.944Z,63.45
2023-01-17T20:31:42.744Z,72.10
2023-01-17T20:34:11.514Z,56.53
2023-01-17T20:36:38.724Z,47.10
2023-01-17T20:39:07.100Z,53.70
2023-01-17T20:41:35.114Z,50.97
2023-01-17T20:44:02.498Z,48.92
2023-01-17T20:46:31.280Z,56.17
2023-01-17T20:48:58.246Z,64.93
2023-01-17T20:51:25.759Z,53.90
2023-01-17T20:53:53.765Z,45.33
2023-01-17T20:56:20.514Z,41.33
2023-01-17T20:58:47.320Z,51.80
2023-01-17T21:01:19.692Z,46.05
2023-01-17T21:03:48.140Z,58.45
2023-01-17T21:06:14.907Z,54.28
2023-01-17T21:08:42.451Z,61.25
2023-01-17T21:11:10.486Z,61.90
2023-01-17T21:13:37.132Z,55.28
2023-01-17T21:16:03.829Z,57.78
2023-01-17T21:18:32.199Z,53.95
2023-01-17T21:21:07.817Z,76.97
2023-01-17T21:23:34.843Z,54.22
2023-01-17T21:26:01.383Z,62.35
2023-01-17T21:28:30.440Z,58.72
2023-01-17T21:30:57.317Z,74.20
2023-01-17T21:33:24.976Z,72.25
2023-01-17T21:35:51.981Z,70.43
2023-01-17T21:38:18.618Z,77.97
2023-01-17T21:40:45.237Z,69.38
2023-01-17T21:43:11.815Z,66.05
2023-01-17T21:45:38.879Z,65.57
2023-01-17T21:48:06.845Z,62.58
2023-01-17T21:50:34.118Z,56.67
2023-01-17T21:53:00.989Z,81.78
2023-01-17T21:55:46.405Z,70.90
2023-01-17T21:58:32.484Z,71.32
2023-01-17T22:01:09.022Z,68.78
2023-01-17T22:03:36.036Z,64.80
2023-01-17T22:06:04.268Z,65.97
2023-01-17T22:08:31.762Z,67.88
2023-01-17T22:11:01.964Z,76.65
2023-01-17T22:13:30.598Z,51.88
2023-01-17T22:15:58.469Z,59.50
2023-01-17T22:18:26.750Z,59.28
2023-01-17T22:20:53.317Z,64.28
2023-01-17T22:23:20.887Z,59.42
2023-01-17T22:25:47.462Z,56.78
2023-01-17T22:28:14.175Z,50.58
2023-01-17T22:30:41.882Z,65.40
2023-01-17T22:33:08.646Z,55.08
2023-01-17T22:35:35.161Z,54.92
2023-01-17T22:38:01.700Z,59.47
2023-01-17T22:40:28.253Z,58.92
2023-01-17T22:42:55.097Z,50.20
2023-01-17T22:45:21.835Z,47.63
2023-01-17T22:47:48.386Z,66.15
2023-01-17T22:50:14.907Z,56.72
2023-01-17T22:52:42.196Z,57.40
2023-01-17T22:55:09.030Z,71.53
2023-01-17T22:57:35.769Z,57.47
2023-01-17T23:00:02.280Z,52.60
2023-01-17T23:02:28.932Z,61.05
2023-01-17T23:04:55.685Z,100.50
2023-01-17T23:07:26.413Z,87.50
2023-01-17T23:09:54.668Z,81.32
2023-01-17T23:12:21.455Z,89.43
2023-01-17T23:15:07.868Z,69.38
2023-01-17T23:17:54.068Z,67.93
2023-01-17T23:20:20.664Z,64.45
2023-01-17T23:22:47.139Z,74.53
2023-01-17T23:25:14.278Z,71.90
2023-01-17T23:28:03.306Z,59.58
2023-01-17T23:30:35.897Z,58.83
2023-01-17T23:33:06.344Z,69.28
2023-01-17T23:35:34.210Z,77.07
2023-01-17T23:38:20.705Z,67.22
2023-01-17T23:41:05.987Z,60.72
2023-01-17T23:43:32.764Z,83.53
2023-01-17T23:45:59.251Z,73.15
2023-01-17T23:48:28.727Z,78.28
2023-01-17T23:50:59.671Z,65.95
2023-01-17T23:53:26.928Z,77.22
2023-01-17T23:55:54.577Z,79.60
2023-01-17T23:58:21.842Z,71.72
